Madison, WI

7:01 PM CST on February 10, 2016 (GMT -0600)
Atmospheric, Oceanic and Space Sciences Building | | Change Station
CLOSE
Current Station
Personal Weather Station
Location: Madison, WI
Elevation: 896 ft
Nearby Weather Stations

Elev 896 ft 43.07 °N, 89.41 °W | Updated 1 minute ago

Mostly Cloudy
Mostly Cloudy
10.9 °F
Feels Like 0 °F
N
7.5
Wind Variable Wind from NW

Today
High -- | Low -- °F
--% Chance of Precip.
Yesterday
High -- | Low -- °F
Precip. -- in
Pressure 30.18 in
Visibility 10.0 miles
Clouds Few 15000 ft
Windchill 0 °F
Dew Point -3 °F
Humidity 51%
Rainfall 0.00 in
Snow Depth Not available.
7:02 AM 5:21 PM
Waxing Crescent, 8% visible
METAR KMSN 110053Z 32004KT 10SM FEW150 M13/M19 A3011 RMK AO2 SLP218 T11281194
Pressure 30.18 in
Visibility 10.0 miles
Clouds Few 15000 ft
Windchill 0 °F
Dew Point -3 °F
Humidity 51%
Rainfall 0.00 in
Snow Depth Not available.
7:02 AM 5:21 PM
Waxing Crescent, 8% visible
METAR KMSN 110053Z 32004KT 10SM FEW150 M13/M19 A3011 RMK AO2 SLP218 T11281194

10-Day Weather Forecast

Almanac

Astronomy

Feb. 10, 2016 Rise Set
Actual Time
Civil Twilight
Nautical Twilight
Astronomical Twilight
Moon
Length of Visible Light
Length of Day
Tomorrow will be .
, % of the Moon is Illuminated

Today's Extremes

State Highs State Lows

Community

WunderPhotos

Upload Photos

1,891,956 photos uploaded!

WunderBlog® & News

Nearby

Air Quality

  Air Quality AQ Index Pollutant
Not available.

Snow Depth

Station Depth Elevation

Earthquake Activity

City Distance Mag. Time & Date
Minimum magnitude displayed is 2.5.

Coastal Water Temperatures

Place Temperature

Stations

Nearby Weather Stations

Station Location Temp. Windchill Dew Point Humidity Wind Precip. Elev Updated Type
                   

Watches & Warnings

There are currently no watches in effect.